Time;durP1;ratioP1;P1;durP2;ratioP2;P2;SDS_P1;SDS_P2;PMS_P1;PMS_P2;Temp;Humidity;BMP_temperature;BMP_pressure;BME280_temperature;BME280_humidity;BME280_pressure;Samples;Min_cycle;Max_cycle;Signal;HPM_P1;HPM_P2
2021/01/04 00:00:59;;;;;;;28.42;15.80;;;-0.60;99.90;;;;;;4771102;30;20057;-77
2021/01/04 00:03:43;;;;;;;30.63;16.23;;;-0.60;99.90;;;;;;4771099;30;20062;-77
2021/01/04 00:06:46;;;;;;;34.30;15.90;;;-0.60;99.90;;;;;;4771111;30;20055;-77
2021/01/04 00:09:25;;;;;;;32.88;14.70;;;-0.60;99.90;;;;;;4777920;30;20534;-77
2021/01/04 00:12:09;;;;;;;34.35;15.85;;;-0.60;99.90;;;;;;4771015;30;20137;-78
2021/01/04 00:14:56;;;;;;;28.98;15.57;;;-0.60;99.90;;;;;;4785067;29;20145;-78
2021/01/04 00:17:49;;;;;;;30.42;15.20;;;-0.60;99.90;;;;;;4771070;30;20075;-78
2021/01/04 00:20:27;;;;;;;30.65;16.63;;;-0.50;99.90;;;;;;4771261;30;20043;-77
2021/01/04 00:23:28;;;;;;;29.05;15.82;;;-0.50;99.90;;;;;;4770694;30;20051;-78
2021/01/04 00:26:11;;;;;;;33.60;15.73;;;-0.40;99.90;;;;;;4770926;30;20150;-78
2021/01/04 00:28:43;;;;;;;23.73;12.15;;;-0.40;99.90;;;;;;4770589;30;20051;-78
2021/01/04 00:31:28;;;;;;;29.08;16.05;;;-0.30;99.90;;;;;;4770904;30;20047;-77
2021/01/04 00:34:22;;;;;;;30.17;15.38;;;-0.30;99.90;;;;;;4786675;29;20411;-77
2021/01/04 00:37:20;;;;;;;29.20;15.27;;;-0.20;99.90;;;;;;4798603;29;20048;-78
2021/01/04 00:39:53;;;;;;;32.90;15.73;;;-0.20;99.90;;;;;;4774734;29;20046;-77
2021/01/04 00:42:39;;;;;;;32.65;15.57;;;-0.30;99.90;;;;;;4786184;29;20143;-77
2021/01/04 00:45:17;;;;;;;30.60;15.65;;;-0.30;99.90;;;;;;4777911;29;20137;-77
2021/01/04 00:47:52;;;;;;;29.52;15.25;;;-0.30;99.90;;;;;;4775386;29;20229;-77
2021/01/04 00:50:48;;;;;;;32.50;15.82;;;-0.20;99.90;;;;;;4786142;29;20065;-77
2021/01/04 00:53:29;;;;;;;31.50;15.55;;;-0.20;99.90;;;;;;4782553;29;20073;-77
2021/01/04 00:56:27;;;;;;;34.25;16.27;;;-0.20;99.90;;;;;;4787920;29;20145;-78
2021/01/04 00:59:20;;;;;;;30.48;15.43;;;-0.20;99.90;;;;;;4788202;29;20507;-77
2021/01/04 01:02:29;;;;;;;30.67;15.45;;;-0.20;99.90;;;;;;4788665;29;20070;-77
2021/01/04 01:05:11;;;;;;;29.45;15.68;;;-0.20;99.90;;;;;;4803150;29;20038;-78
2021/01/04 01:08:13;;;;;;;34.97;15.20;;;-0.20;99.90;;;;;;4788709;29;20096;-78
2021/01/04 01:10:53;;;;;;;31.60;16.48;;;-0.20;99.90;;;;;;4788941;29;20572;-78
2021/01/04 01:13:33;;;;;;;28.98;15.40;;;-0.10;99.90;;;;;;4802980;29;20104;-77
2021/01/04 01:16:35;;;;;;;29.02;15.63;;;-0.10;99.90;;;;;;4787995;29;20112;-77
2021/01/04 01:19:09;;;;;;;29.08;16.10;;;-0.10;99.90;;;;;;4788396;29;20061;-77
2021/01/04 01:21:44;;;;;;;29.65;16.05;;;0.00;99.90;;;;;;4788975;29;20146;-78
2021/01/04 01:24:12;;;;;;;33.90;16.67;;;-0.10;99.90;;;;;;4788397;29;20149;-77
2021/01/04 01:27:11;;;;;;;31.65;15.05;;;-0.10;99.90;;;;;;4788230;29;20503;-78
2021/01/04 01:29:52;;;;;;;32.40;16.17;;;-0.10;99.90;;;;;;4788247;29;20050;-78
2021/01/04 01:32:41;;;;;;;34.03;15.18;;;-0.10;99.90;;;;;;4789069;29;20086;-77
2021/01/04 01:35:41;;;;;;;32.47;15.88;;;0.00;99.90;;;;;;4788854;29;20053;-78
2021/01/04 01:38:46;;;;;;;29.85;14.80;;;0.00;99.90;;;;;;4787202;29;20069;-78
2021/01/04 01:41:44;;;;;;;31.83;15.27;;;0.00;99.90;;;;;;4788801;29;20054;-78
2021/01/04 01:44:49;;;;;;;31.17;14.82;;;0.00;99.90;;;;;;4803036;29;20123;-77
2021/01/04 01:47:42;;;;;;;31.85;15.80;;;0.00;99.90;;;;;;4788895;29;20058;-78
2021/01/04 01:50:13;;;;;;;33.92;17.75;;;0.00;99.90;;;;;;4788633;29;20061;-78
2021/01/04 01:52:51;;;;;;;32.30;17.23;;;0.10;99.90;;;;;;4788779;29;20043;-77
2021/01/04 01:55:40;;;;;;;35.30;16.42;;;0.10;99.90;;;;;;4788788;29;20051;-78
2021/01/04 01:58:14;;;;;;;31.75;16.60;;;0.10;99.90;;;;;;4787938;29;20099;-77
2021/01/04 02:00:56;;;;;;;30.73;15.85;;;0.10;99.90;;;;;;4802851;29;20046;-77
2021/01/04 02:03:35;;;;;;;34.38;17.20;;;0.10;99.90;;;;;;4787450;29;20133;-78
2021/01/04 02:06:28;;;;;;;33.78;17.30;;;0.10;99.90;;;;;;4787787;29;20042;-77
2021/01/04 02:09:09;;;;;;;33.58;16.33;;;0.10;99.90;;;;;;4802709;29;20470;-78
2021/01/04 02:11:53;;;;;;;35.65;16.83;;;0.10;99.90;;;;;;4788358;29;20067;-77
2021/01/04 02:14:36;;;;;;;29.48;15.82;;;0.10;99.90;;;;;;4787920;29;20179;-78
2021/01/04 02:17:27;;;;;;;32.95;15.35;;;0.10;99.90;;;;;;4787818;29;20614;-77
2021/01/04 02:20:04;;;;;;;31.10;15.07;;;0.10;99.90;;;;;;4787756;29;20061;-77
2021/01/04 02:22:47;;;;;;;33.50;15.05;;;0.10;99.90;;;;;;4802716;29;20158;-78
2021/01/04 02:25:19;;;;;;;28.50;14.77;;;0.10;99.90;;;;;;4802744;29;20082;-77
2021/01/04 02:27:56;;;;;;;30.02;15.90;;;0.10;99.90;;;;;;4788284;29;20047;-78
2021/01/04 02:30:27;;;;;;;32.25;15.75;;;0.10;99.90;;;;;;4787973;29;20058;-77
2021/01/04 02:32:58;;;;;;;27.17;14.25;;;0.10;99.90;;;;;;4788235;29;20053;-77
2021/01/04 02:35:33;;;;;;;;;;;0.10;99.90;;;;;;4803217;29;20141;-77
2021/01/04 02:37:59;;;;;;;31.48;14.60;;;0.10;99.90;;;;;;4802045;29;20385;-77
2021/01/04 02:40:31;;;;;;;34.70;15.15;;;0.10;99.90;;;;;;4802481;29;20590;-78
2021/01/04 02:43:04;;;;;;;35.58;18.10;;;0.10;99.90;;;;;;4788099;29;20051;-78
2021/01/04 02:45:32;;;;;;;32.55;16.63;;;0.10;99.90;;;;;;4787484;29;20480;-77
2021/01/04 02:48:20;;;;;;;33.03;18.00;;;0.10;99.90;;;;;;4787776;29;20050;-77
2021/01/04 02:51:13;;;;;;;35.22;17.13;;;0.10;99.90;;;;;;4788457;29;20058;-77
2021/01/04 02:54:01;;;;;;;33.22;17.40;;;0.10;99.90;;;;;;4802358;29;20129;-78
2021/01/04 02:57:03;;;;;;;33.15;16.48;;;0.10;99.90;;;;;;4787555;29;20150;-78
2021/01/04 02:59:53;;;;;;;34.65;17.05;;;0.10;99.90;;;;;;4802224;29;20138;-78
2021/01/04 03:02:35;;;;;;;40.38;16.55;;;0.10;99.90;;;;;;4788217;29;20051;-77
2021/01/04 03:05:10;;;;;;;33.30;17.83;;;0.10;99.90;;;;;;4788022;29;20353;-77
2021/01/04 03:07:48;;;;;;;34.38;16.65;;;0.10;99.90;;;;;;4787966;29;20047;-77
2021/01/04 03:10:31;;;;;;;33.55;16.80;;;0.10;99.90;;;;;;4804992;29;20050;-77
2021/01/04 03:13:26;;;;;;;35.30;18.52;;;0.10;99.90;;;;;;4805852;29;20130;-78
2021/01/04 03:16:17;;;;;;;37.03;17.60;;;0.10;99.90;;;;;;4791185;29;20051;-78
2021/01/04 03:19:09;;;;;;;32.33;17.52;;;0.10;99.90;;;;;;4806735;29;20407;-77
2021/01/04 03:21:39;;;;;;;33.50;17.58;;;0.10;99.90;;;;;;4805504;29;20694;-77
2021/01/04 03:24:16;;;;;;;35.28;17.88;;;0.10;99.90;;;;;;4790995;29;20410;-77
2021/01/04 03:26:54;;;;;;;37.50;17.30;;;0.10;99.90;;;;;;4791076;29;20065;-78
2021/01/04 03:29:20;;;;;;;35.55;17.40;;;0.10;99.90;;;;;;4790601;29;20043;-77
2021/01/04 03:31:51;;;;;;;32.10;16.48;;;0.10;99.90;;;;;;4791152;29;20529;-77
2021/01/04 03:34:23;;;;;;;31.35;16.08;;;0.10;99.90;;;;;;4790951;29;20047;-78
2021/01/04 03:36:54;;;;;;;32.67;16.45;;;0.10;99.90;;;;;;4791111;29;20515;-78
2021/01/04 03:39:21;;;;;;;32.50;17.20;;;0.10;99.90;;;;;;4790368;29;20137;-78
2021/01/04 03:41:52;;;;;;;35.35;17.75;;;0.10;99.90;;;;;;4790809;29;20046;-77
2021/01/04 03:44:27;;;;;;;30.30;16.50;;;0.10;99.90;;;;;;4805297;29;20054;-78
2021/01/04 03:46:58;;;;;;;35.40;17.23;;;0.10;99.90;;;;;;4791083;29;20051;-78
2021/01/04 03:49:29;;;;;;;29.80;16.83;;;0.10;99.90;;;;;;4806194;29;20059;-78
2021/01/04 03:52:01;;;;;;;32.65;16.95;;;0.10;99.90;;;;;;4790768;29;20057;-78
2021/01/04 03:54:27;;;;;;;32.97;16.23;;;0.20;99.90;;;;;;4789977;29;20051;-78
2021/01/04 03:56:59;;;;;;;29.77;14.73;;;0.10;99.90;;;;;;4805219;29;20126;-77
2021/01/04 03:59:30;;;;;;;30.05;15.85;;;0.10;99.90;;;;;;4804932;29;20418;-78
2021/01/04 04:02:04;;;;;;;27.48;14.68;;;0.20;99.90;;;;;;4790641;29;20430;-78
2021/01/04 04:04:30;;;;;;;25.30;12.98;;;0.20;99.90;;;;;;4789768;29;20538;-77
2021/01/04 04:07:02;;;;;;;26.20;12.98;;;0.20;99.90;;;;;;4804672;29;20055;-78
2021/01/04 04:09:33;;;;;;;27.10;14.18;;;0.20;99.90;;;;;;4804654;29;20066;-78
2021/01/04 04:12:06;;;;;;;22.00;12.18;;;0.20;99.90;;;;;;4804574;29;20062;-78
2021/01/04 04:14:37;;;;;;;22.33;12.15;;;0.20;99.90;;;;;;4790262;29;20050;-77
2021/01/04 04:17:08;;;;;;;21.98;11.75;;;0.20;99.90;;;;;;4804881;29;20051;-78
2021/01/04 04:19:39;;;;;;;22.98;12.55;;;0.20;99.90;;;;;;4790198;29;20537;-78
2021/01/04 04:22:05;;;;;;;20.08;11.88;;;0.20;99.90;;;;;;4788720;29;20078;-78
2021/01/04 04:24:41;;;;;;;21.38;12.32;;;0.20;99.90;;;;;;4790471;29;20480;-77
2021/01/04 04:27:14;;;;;;;21.40;12.15;;;0.20;99.90;;;;;;4790168;29;20043;-77
2021/01/04 04:29:46;;;;;;;21.10;11.77;;;0.30;99.90;;;;;;4790274;29;20507;-78
2021/01/04 04:32:18;;;;;;;20.60;11.13;;;0.30;99.90;;;;;;4790070;29;20051;-78
2021/01/04 04:34:45;;;;;;;21.23;11.30;;;0.30;99.90;;;;;;4804399;29;20051;-78
2021/01/04 04:37:16;;;;;;;21.05;10.88;;;0.30;99.90;;;;;;4804688;29;20066;-77
2021/01/04 04:39:47;;;;;;;20.60;11.40;;;0.30;99.90;;;;;;4790030;29;20050;-77
2021/01/04 04:42:19;;;;;;;20.42;10.32;;;0.30;99.90;;;;;;4804819;29;20055;-77
2021/01/04 04:44:54;;;;;;;20.55;11.18;;;0.30;99.90;;;;;;4789416;29;20054;-77
2021/01/04 04:47:44;;;;;;;22.17;12.15;;;0.30;99.90;;;;;;4789931;29;20530;-77
2021/01/04 04:50:42;;;;;;;19.77;10.43;;;0.30;99.90;;;;;;4789095;29;20728;-77
2021/01/04 04:53:32;;;;;;;19.33;10.40;;;0.30;99.90;;;;;;4775483;29;20050;-77
2021/01/04 04:56:15;;;;;;;21.65;10.48;;;0.30;99.90;;;;;;4789752;29;20057;-77
2021/01/04 04:59:20;;;;;;;21.17;11.00;;;0.30;99.90;;;;;;4803925;29;20050;-79
2021/01/04 05:01:49;;;;;;;22.65;11.23;;;0.30;99.90;;;;;;4788950;29;20047;-79
2021/01/04 05:04:45;;;;;;;20.30;11.45;;;0.30;99.90;;;;;;4789799;29;20051;-78
2021/01/04 05:07:25;;;;;;;22.45;11.23;;;0.30;99.90;;;;;;4789210;29;20055;-77
2021/01/04 05:10:11;;;;;;;22.35;11.77;;;0.40;99.90;;;;;;4789576;29;20600;-78
2021/01/04 05:13:16;;;;;;;19.42;10.50;;;0.30;99.90;;;;;;4803714;29;20051;-78
2021/01/04 05:16:05;;;;;;;20.60;10.77;;;0.30;99.90;;;;;;4804108;29;20061;-78
2021/01/04 05:18:50;;;;;;;;;;;0.30;99.90;;;;;;4789195;29;20145;-78
2021/01/04 05:21:59;;;;;;;20.17;10.48;;;0.30;99.90;;;;;;4803539;29;19925;-77
2021/01/04 05:25:22;;;;;;;22.58;11.57;;;0.30;99.90;;;;;;4789346;29;20208;-77
2021/01/04 05:28:02;;;;;;;23.88;11.50;;;0.30;99.90;;;;;;4755480;30;20051;-77
2021/01/04 05:30:50;;;;;;;22.38;11.60;;;0.30;99.90;;;;;;4803488;29;20262;-77
2021/01/04 05:33:49;;;;;;;22.20;11.80;;;0.30;99.90;;;;;;4803232;29;20495;-78
2021/01/04 05:36:44;;;;;;;21.92;13.05;;;0.30;99.90;;;;;;4789025;29;20114;-78
2021/01/04 05:39:21;;;;;;;24.08;12.68;;;0.30;99.90;;;;;;4789157;29;20058;-78
2021/01/04 05:42:07;;;;;;;29.45;15.30;;;0.30;99.90;;;;;;4789107;29;20324;-78
2021/01/04 05:44:52;;;;;;;28.67;14.07;;;0.40;99.90;;;;;;4788442;29;20145;-78
2021/01/04 05:47:24;;;;;;;24.63;13.07;;;0.40;99.90;;;;;;4788281;29;20057;-77
2021/01/04 05:50:13;;;;;;;31.83;13.32;;;0.30;99.90;;;;;;4789049;29;20055;-78
2021/01/04 05:52:45;;;;;;;26.02;13.43;;;0.40;99.90;;;;;;4788845;29;20068;-77
2021/01/04 05:55:16;;;;;;;23.98;12.82;;;0.40;99.90;;;;;;4803276;29;20053;-77
2021/01/04 05:57:50;;;;;;;26.65;13.00;;;0.40;99.90;;;;;;4788800;29;20042;-78
2021/01/04 06:00:35;;;;;;;;;;;0.30;99.90;;;;;;4789182;29;20054;-78
2021/01/04 06:03:22;;;;;;;27.98;13.32;;;0.30;99.90;;;;;;4803234;29;19931;-77
2021/01/04 06:05:50;;;;;;;25.15;12.55;;;0.30;99.90;;;;;;4788139;29;20146;-78
2021/01/04 06:08:28;;;;;;;26.42;13.50;;;0.30;99.90;;;;;;4788674;29;20141;-78
2021/01/04 06:11:14;;;;;;;27.10;12.68;;;0.30;99.90;;;;;;4788482;29;20464;-78
2021/01/04 06:13:43;;;;;;;30.25;13.73;;;0.30;99.90;;;;;;4802995;29;20075;-78
2021/01/04 06:16:24;;;;;;;25.92;14.43;;;0.30;99.90;;;;;;4803198;29;20047;-77
2021/01/04 06:19:06;;;;;;;27.00;13.60;;;0.30;99.90;;;;;;4788754;29;20054;-78
2021/01/04 06:21:45;;;;;;;25.05;14.20;;;0.30;99.90;;;;;;4788987;29;20500;-78
2021/01/04 06:24:26;;;;;;;24.23;13.68;;;0.30;99.90;;;;;;4787902;29;20059;-78
2021/01/04 06:27:37;;;;;;;24.90;13.73;;;0.30;99.90;;;;;;4788586;29;20047;-77
2021/01/04 06:30:17;;;;;;;23.88;12.00;;;0.30;99.90;;;;;;4802826;29;20121;-78
2021/01/04 06:32:53;;;;;;;26.58;13.15;;;0.20;99.90;;;;;;4788181;29;20047;-78
2021/01/04 06:35:31;;;;;;;25.92;13.57;;;0.20;99.90;;;;;;4788290;29;20057;-77
2021/01/04 06:38:10;;;;;;;25.45;13.93;;;0.20;99.90;;;;;;4804515;29;20055;-78
2021/01/04 06:40:42;;;;;;;26.55;12.82;;;0.20;99.90;;;;;;4789094;29;20055;-77
2021/01/04 06:43:28;;;;;;;28.48;13.93;;;0.20;99.90;;;;;;4785142;29;20148;-78
2021/01/04 06:46:15;;;;;;;26.15;13.85;;;0.20;99.90;;;;;;4789141;29;20118;-77
2021/01/04 06:48:59;;;;;;;23.50;12.48;;;0.20;99.90;;;;;;4804754;29;20051;-77
2021/01/04 06:51:55;;;;;;;27.85;14.52;;;0.20;99.90;;;;;;4790521;29;20055;-77
2021/01/04 06:55:03;;;;;;;25.27;13.45;;;0.20;99.90;;;;;;4790045;29;20385;-77
2021/01/04 06:58:02;;;;;;;24.50;14.07;;;0.20;99.90;;;;;;4804502;29;20087;-77
2021/01/04 07:01:00;;;;;;;25.83;14.02;;;0.20;99.90;;;;;;4804268;29;20146;-77
2021/01/04 07:04:02;;;;;;;27.60;13.95;;;0.30;99.90;;;;;;4789988;29;20419;-77
2021/01/04 07:07:13;;;;;;;25.15;12.82;;;0.30;99.90;;;;;;4778487;29;20451;-77
2021/01/04 07:10:06;;;;;;;24.80;13.60;;;0.30;99.90;;;;;;4784404;29;20082;-77
2021/01/04 07:12:57;;;;;;;24.02;12.63;;;0.20;99.90;;;;;;4786303;29;20058;-77
2021/01/04 07:15:27;;;;;;;35.55;18.05;;;0.20;99.90;;;;;;4786180;30;20505;-77
2021/01/04 07:18:02;;;;;;;31.67;17.27;;;0.30;99.90;;;;;;4785710;30;20044;-77
2021/01/04 07:20:37;;;;;;;32.45;16.33;;;0.20;99.90;;;;;;4786186;29;20138;-77
2021/01/04 07:23:43;;;;;;;36.22;17.75;;;0.20;99.90;;;;;;4771808;30;20054;-78
2021/01/04 07:26:50;;;;;;;28.77;15.68;;;0.20;99.90;;;;;;4785583;29;20059;-78
2021/01/04 07:29:43;;;;;;;31.88;14.27;;;0.20;99.90;;;;;;4769347;30;20059;-77
2021/01/04 07:32:56;;;;;;;34.63;16.67;;;0.20;99.90;;;;;;4771887;30;20243;-78
2021/01/04 07:35:39;;;;;;;31.40;16.02;;;0.20;99.90;;;;;;4738022;30;20526;-78
2021/01/04 07:38:32;;;;;;;34.17;18.10;;;0.20;99.90;;;;;;4782591;30;20143;-77
2021/01/04 07:41:34;;;;;;;34.22;17.95;;;0.20;99.90;;;;;;4771781;30;20048;-77
2021/01/04 07:44:30;;;;;;;32.97;16.42;;;0.20;99.90;;;;;;4771603;30;20047;-77
2021/01/04 07:47:12;;;;;;;29.83;16.60;;;0.20;99.90;;;;;;4771170;29;20079;-77
2021/01/04 07:50:06;;;;;;;31.50;15.45;;;0.20;99.90;;;;;;4771389;30;20415;-77
2021/01/04 07:52:50;;;;;;;28.23;15.45;;;0.20;99.90;;;;;;4771686;30;20508;-78
2021/01/04 07:55:37;;;;;;;27.88;15.80;;;0.20;99.90;;;;;;4771005;29;20091;-78
2021/01/04 07:58:43;;;;;;;26.98;14.93;;;0.10;99.90;;;;;;4797164;29;20129;-77
2021/01/04 08:01:24;;;;;;;28.45;15.43;;;0.00;99.90;;;;;;4788954;29;20051;-77
2021/01/04 08:04:24;;;;;;;29.08;14.65;;;0.10;99.90;;;;;;4803337;29;20053;-77
2021/01/04 08:07:34;;;;;;;26.90;15.30;;;0.10;99.90;;;;;;4788800;29;20065;-76
2021/01/04 08:10:38;;;;;;;27.15;14.05;;;0.10;99.90;;;;;;4805419;29;20059;-77
2021/01/04 08:13:07;;;;;;;22.92;13.98;;;0.00;99.90;;;;;;4803372;29;20057;-77
2021/01/04 08:15:50;;;;;;;29.00;14.85;;;-0.10;99.90;;;;;;4791442;29;20047;-77
2021/01/04 08:18:19;;;;;;;27.48;14.70;;;-0.10;99.90;;;;;;4790557;29;20470;-79
2021/01/04 08:21:00;;;;;;;26.40;14.45;;;-0.10;99.90;;;;;;4780135;29;20055;-77
2021/01/04 08:23:35;;;;;;;26.60;14.48;;;-0.10;99.90;;;;;;4772841;30;20051;-77
2021/01/04 08:26:20;;;;;;;28.35;15.32;;;-0.10;99.90;;;;;;4779576;29;20057;-77
2021/01/04 08:29:05;;;;;;;26.02;14.55;;;0.00;99.90;;;;;;4805707;29;20146;-78
2021/01/04 08:31:37;;;;;;;28.73;15.60;;;0.00;99.90;;;;;;4790246;29;20050;-78
2021/01/04 08:34:19;;;;;;;26.13;15.10;;;0.00;99.90;;;;;;4790569;29;20053;-77
2021/01/04 08:36:58;;;;;;;25.83;14.40;;;0.00;99.90;;;;;;4805455;29;20519;-78
2021/01/04 08:39:24;;;;;;;26.02;14.40;;;0.00;99.90;;;;;;4791104;29;20146;-77
2021/01/04 08:42:04;;;;;;;34.85;16.60;;;0.00;99.90;;;;;;4791652;29;20055;-77
2021/01/04 08:44:32;;;;;;;33.30;15.80;;;0.00;99.90;;;;;;4790584;29;20051;-77
2021/01/04 08:47:26;;;;;;;29.67;15.70;;;0.10;99.90;;;;;;4790831;29;20061;-75
2021/01/04 08:50:22;;;;;;;26.05;13.85;;;0.20;99.90;;;;;;4789839;29;20057;-77
2021/01/04 08:52:53;;;;;;;30.60;15.63;;;0.50;99.90;;;;;;4804979;29;20130;-78
2021/01/04 08:55:30;;;;;;;29.23;15.65;;;0.60;99.90;;;;;;4790675;29;20047;-79
2021/01/04 08:58:21;;;;;;;30.55;16.30;;;0.50;99.90;;;;;;4790694;29;20069;-77
2021/01/04 09:00:56;;;;;;;32.45;16.60;;;0.50;99.90;;;;;;4790628;29;20053;-78
2021/01/04 09:03:31;;;;;;;29.30;16.65;;;0.50;99.90;;;;;;4790992;29;20055;-77
2021/01/04 09:06:15;;;;;;;31.23;16.73;;;0.40;99.90;;;;;;4805151;29;20050;-77
2021/01/04 09:08:51;;;;;;;33.03;17.83;;;0.40;99.90;;;;;;4790383;29;20060;-77
2021/01/04 09:11:23;;;;;;;30.55;16.30;;;0.30;99.90;;;;;;4790787;29;20660;-77
2021/01/04 09:13:53;;;;;;;31.58;17.10;;;0.30;99.90;;;;;;4789818;29;20055;-77
2021/01/04 09:16:31;;;;;;;32.38;17.33;;;0.40;99.90;;;;;;4778632;29;20411;-78
2021/01/04 09:19:28;;;;;;;31.92;18.77;;;0.40;99.90;;;;;;4772512;30;20062;-78
2021/01/04 09:22:09;;;;;;;33.55;17.65;;;0.30;99.90;;;;;;4772226;30;20062;-77
2021/01/04 09:24:41;;;;;;;31.25;18.15;;;0.30;99.90;;;;;;4786473;29;20061;-77
2021/01/04 09:27:29;;;;;;;32.47;16.58;;;0.30;99.90;;;;;;4771846;30;20146;-77
2021/01/04 09:30:05;;;;;;;37.08;20.13;;;0.30;99.90;;;;;;4772587;30;20055;-77
2021/01/04 09:32:39;;;;;;;33.28;17.48;;;0.30;99.90;;;;;;4786696;30;20142;-77
2021/01/04 09:35:24;;;;;;;37.35;18.83;;;0.30;99.90;;;;;;4772466;30;20053;-77
2021/01/04 09:38:01;;;;;;;34.83;18.52;;;0.30;99.90;;;;;;4786854;30;20039;-79
2021/01/04 09:40:34;;;;;;;37.03;18.35;;;0.30;99.90;;;;;;4773529;30;20049;-77
2021/01/04 09:43:12;;;;;;;35.50;17.98;;;0.30;99.90;;;;;;4773187;30;20415;-77
2021/01/04 09:45:43;;;;;;;32.50;16.52;;;0.30;99.90;;;;;;4806957;29;20051;-77
2021/01/04 09:48:23;;;;;;;35.25;18.08;;;0.30;99.90;;;;;;4808935;29;20491;-77
2021/01/04 09:51:08;;;;;;;35.65;18.85;;;0.30;99.90;;;;;;4806034;29;20075;-77
2021/01/04 09:53:36;;;;;;;43.85;22.88;;;0.30;99.90;;;;;;4805331;29;20476;-77
2021/01/04 09:56:06;;;;;;;52.38;26.52;;;0.30;99.90;;;;;;4805524;29;20138;-78
2021/01/04 09:58:32;;;;;;;56.00;27.33;;;0.30;99.90;;;;;;4784163;29;20067;-78
2021/01/04 10:01:18;;;;;;;43.75;23.30;;;0.30;99.90;;;;;;4777325;30;20124;-77
2021/01/04 10:04:00;;;;;;;38.78;20.40;;;0.40;99.90;;;;;;4776599;30;20562;-77
2021/01/04 10:06:34;;;;;;;31.33;17.27;;;0.40;99.90;;;;;;4777332;30;20084;-77
2021/01/04 10:09:12;;;;;;;34.13;18.65;;;0.40;99.90;;;;;;4775385;30;20055;-77
2021/01/04 10:11:38;;;;;;;35.00;17.77;;;0.40;99.90;;;;;;4776758;30;20059;-77
2021/01/04 10:14:10;;;;;;;35.38;19.42;;;0.40;99.90;;;;;;4774899;29;20074;-78
2021/01/04 10:16:40;;;;;;;33.28;18.20;;;0.40;99.90;;;;;;4775905;30;20557;-77
2021/01/04 10:19:30;;;;;;;34.47;18.05;;;0.40;99.90;;;;;;4777075;30;20047;-77
2021/01/04 10:22:09;;;;;;;39.13;19.50;;;0.30;99.90;;;;;;4784856;29;20051;-79
2021/01/04 10:24:38;;;;;;;36.97;18.75;;;0.30;99.90;;;;;;4799411;29;20510;-78
2021/01/04 10:27:06;;;;;;;53.05;26.40;;;0.30;99.90;;;;;;4798997;29;20538;-78
2021/01/04 10:29:41;;;;;;;49.13;23.70;;;0.30;99.90;;;;;;4798507;29;20089;-77
2021/01/04 10:32:30;;;;;;;44.92;23.17;;;0.30;99.90;;;;;;4779141;29;20056;-77
2021/01/04 10:34:57;;;;;;;45.85;23.02;;;0.30;99.90;;;;;;4797848;29;20105;-77
2021/01/04 10:37:43;;;;;;;43.13;21.67;;;0.30;99.90;;;;;;4779328;30;20043;-77
2021/01/04 10:40:18;;;;;;;38.92;21.10;;;0.30;99.90;;;;;;4776799;30;20497;-77
2021/01/04 10:43:01;;;;;;;39.05;21.10;;;0.40;99.90;;;;;;4809684;29;20141;-77
2021/01/04 10:45:36;;;;;;;40.10;20.60;;;0.30;99.90;;;;;;4811241;29;20150;-78
2021/01/04 10:48:26;;;;;;;39.08;19.15;;;0.30;99.90;;;;;;4797293;29;20142;-77
2021/01/04 10:50:57;;;;;;;30.95;17.20;;;0.30;99.90;;;;;;4807112;29;20047;-78
2021/01/04 10:53:34;;;;;;;33.83;18.38;;;0.30;99.90;;;;;;4796497;29;20074;-79
2021/01/04 10:56:08;;;;;;;35.88;19.05;;;0.30;99.90;;;;;;4786181;29;20594;-78
2021/01/04 10:58:55;;;;;;;37.17;17.23;;;0.30;99.90;;;;;;4794660;30;20567;-78
2021/01/04 11:01:24;;;;;;;34.03;17.13;;;0.30;99.90;;;;;;4778248;30;20116;-77
2021/01/04 11:03:58;;;;;;;34.53;20.42;;;0.30;99.90;;;;;;4794657;30;20061;-77
2021/01/04 11:06:33;;;;;;;40.83;22.02;;;0.30;99.90;;;;;;4782367;29;20448;-77
2021/01/04 11:09:13;;;;;;;36.33;18.63;;;0.30;99.90;;;;;;4812171;29;20101;-77
2021/01/04 11:11:50;;;;;;;31.90;18.13;;;0.30;99.90;;;;;;4812849;29;20050;-77
2021/01/04 11:14:23;;;;;;;32.55;16.55;;;0.30;99.90;;;;;;4797501;29;20054;-77
2021/01/04 11:17:07;;;;;;;31.85;16.63;;;0.30;99.90;;;;;;4797184;29;20051;-78
2021/01/04 11:19:36;;;;;;;31.20;16.77;;;0.30;99.90;;;;;;4810699;29;20054;-77
2021/01/04 11:22:15;;;;;;;38.47;17.75;;;0.30;99.90;;;;;;4796093;29;20073;-78
2021/01/04 11:24:46;;;;;;;31.55;17.08;;;0.20;99.90;;;;;;4811504;29;20399;-79
2021/01/04 11:27:19;;;;;;;29.95;17.35;;;0.20;99.90;;;;;;4797819;29;20070;-79
2021/01/04 11:29:47;;;;;;;30.02;15.30;;;0.20;99.90;;;;;;4774998;29;20052;-79
2021/01/04 11:32:20;;;;;;;33.30;15.77;;;0.20;99.90;;;;;;4802695;29;20039;-79
2021/01/04 11:35:00;;;;;;;35.45;17.58;;;0.20;99.90;;;;;;4801553;29;20052;-78
2021/01/04 11:37:28;;;;;;;29.63;16.00;;;0.20;99.90;;;;;;4792816;30;20059;-79
2021/01/04 11:40:07;;;;;;;32.47;17.88;;;0.20;99.90;;;;;;4792726;30;20059;-79
2021/01/04 11:42:54;;;;;;;35.05;17.45;;;0.30;99.90;;;;;;4781803;30;20123;-79
2021/01/04 11:45:21;;;;;;;33.08;17.88;;;0.30;99.90;;;;;;4774870;29;20066;-79
2021/01/04 11:47:53;;;;;;;31.55;15.65;;;0.30;99.90;;;;;;4788913;30;20061;-79
2021/01/04 11:50:20;;;;;;;26.30;15.30;;;0.30;99.90;;;;;;4790976;29;20051;-79
2021/01/04 11:52:48;;;;;;;31.48;15.77;;;0.20;99.90;;;;;;4789072;29;20051;-79
2021/01/04 11:55:16;;;;;;;28.98;14.80;;;0.30;99.90;;;;;;4789517;29;20047;-79
2021/01/04 11:57:48;;;;;;;30.10;15.63;;;0.30;99.90;;;;;;4789228;29;20412;-79
2021/01/04 12:00:20;;;;;;;28.77;14.25;;;0.30;99.90;;;;;;4789490;29;20048;-79
2021/01/04 12:02:48;;;;;;;28.05;14.90;;;0.30;99.90;;;;;;4789348;30;20054;-79
2021/01/04 12:05:16;;;;;;;33.30;16.67;;;0.30;99.90;;;;;;4774538;29;20062;-79
2021/01/04 12:07:43;;;;;;;29.00;15.38;;;0.30;99.90;;;;;;4789505;29;20427;-78
2021/01/04 12:10:18;;;;;;;27.30;14.98;;;0.20;99.90;;;;;;4775782;29;20082;-79
2021/01/04 12:12:44;;;;;;;30.55;16.00;;;0.20;99.90;;;;;;4789294;29;20047;-79
2021/01/04 12:15:16;;;;;;;29.50;15.40;;;0.20;99.90;;;;;;4775203;29;20043;-79
2021/01/04 12:17:43;;;;;;;33.70;16.20;;;0.20;99.90;;;;;;4789538;29;20058;-79
2021/01/04 12:20:11;;;;;;;28.52;15.82;;;0.30;99.90;;;;;;4774429;29;20052;-79
2021/01/04 12:23:15;;;;;;;33.03;17.07;;;0.30;99.90;;;;;;4783971;24;20047;-82
2021/01/04 12:25:47;;;;;;;37.53;17.98;;;0.30;99.90;;;;;;4738053;30;20052;-79
2021/01/04 12:28:18;;;;;;;38.58;18.05;;;0.30;99.90;;;;;;4754219;30;20501;-77
2021/01/04 12:30:50;;;;;;;39.70;18.38;;;0.20;99.90;;;;;;4753031;30;20519;-77
2021/01/04 12:33:17;;;;;;;32.13;15.77;;;0.30;99.90;;;;;;4762006;30;20455;-77
2021/01/04 12:35:49;;;;;;;30.88;15.98;;;0.30;99.90;;;;;;4753412;30;20044;-76
2021/01/04 12:38:21;;;;;;;28.10;15.07;;;0.30;99.90;;;;;;4752004;30;20078;-77
2021/01/04 12:40:52;;;;;;;28.05;16.58;;;0.30;99.90;;;;;;4758046;30;20063;-77
2021/01/04 12:43:23;;;;;;;32.40;14.55;;;0.30;99.90;;;;;;4782752;29;20056;-77
2021/01/04 12:45:54;;;;;;;27.77;13.40;;;0.20;99.90;;;;;;4755682;30;20060;-77
2021/01/04 12:48:26;;;;;;;28.88;13.93;;;0.20;99.90;;;;;;4750423;30;20052;-79
2021/01/04 12:50:57;;;;;;;26.50;14.50;;;0.20;99.90;;;;;;4751295;30;20063;-77
2021/01/04 12:53:28;;;;;;;27.90;12.52;;;0.20;99.90;;;;;;4751432;30;20044;-77
2021/01/04 12:55:59;;;;;;;28.00;13.65;;;0.20;99.90;;;;;;4754048;30;20058;-77
2021/01/04 12:58:31;;;;;;;25.63;14.43;;;0.30;99.90;;;;;;4767714;30;20130;-77
2021/01/04 13:01:02;;;;;;;26.73;14.48;;;0.20;99.90;;;;;;4762530;30;20126;-77
2021/01/04 13:03:33;;;;;;;33.22;19.77;;;0.20;99.90;;;;;;4757056;30;20052;-79
2021/01/04 13:06:05;;;;;;;35.97;18.02;;;0.20;99.90;;;;;;4751124;30;20151;-78
2021/01/04 13:08:34;;;;;;;37.95;18.45;;;0.20;99.90;;;;;;4750915;30;20491;-77
2021/01/04 13:11:07;;;;;;;27.48;15.20;;;0.20;99.90;;;;;;4752130;30;20044;-77
2021/01/04 13:13:38;;;;;;;29.58;15.48;;;0.30;99.90;;;;;;4753264;30;20066;-77
2021/01/04 13:16:10;;;;;;;30.05;14.20;;;0.30;99.90;;;;;;4747706;30;20052;-77
2021/01/04 13:18:41;;;;;;;26.67;14.75;;;0.30;99.90;;;;;;4752390;30;20044;-77
2021/01/04 13:21:21;;;;;;;36.97;16.10;;;0.30;99.90;;;;;;4762177;30;20547;-78
2021/01/04 13:23:52;;;;;;;38.17;18.63;;;0.30;99.90;;;;;;4760360;30;20044;-77
2021/01/04 13:26:23;;;;;;;30.13;15.77;;;0.30;99.90;;;;;;4768209;30;20082;-77
2021/01/04 13:28:55;;;;;;;30.00;17.73;;;0.30;99.90;;;;;;4767589;30;20056;-77
2021/01/04 13:31:26;;;;;;;33.05;16.98;;;0.30;99.90;;;;;;4764920;30;20055;-77
2021/01/04 13:33:57;;;;;;;25.67;14.05;;;0.30;99.90;;;;;;4765997;30;20523;-77
2021/01/04 13:36:29;;;;;;;28.60;14.40;;;0.30;99.90;;;;;;4750468;30;20044;-77
2021/01/04 13:39:00;;;;;;;28.05;14.57;;;0.30;99.90;;;;;;4763576;30;20040;-77
2021/01/04 13:41:33;;;;;;;28.58;15.07;;;0.20;99.90;;;;;;4751987;30;20054;-77